createdAt,value
2019-02-08T00:00:54.096Z,80.50
2019-02-08T00:03:23.131Z,80.60
2019-02-08T00:05:52.042Z,81.30
2019-02-08T00:08:21.381Z,80.70
2019-02-08T00:10:50.369Z,80.80
2019-02-08T00:13:19.341Z,80.90
2019-02-08T00:15:48.598Z,80.90
2019-02-08T00:18:17.524Z,81.00
2019-02-08T00:20:46.556Z,80.80
2019-02-08T00:23:26.252Z,80.90
2019-02-08T00:25:46.136Z,80.90
2019-02-08T00:28:15.046Z,80.90
2019-02-08T00:30:44.287Z,81.00
2019-02-08T00:33:13.309Z,81.00
2019-02-08T00:35:42.374Z,81.00
2019-02-08T00:38:11.177Z,81.00
2019-02-08T00:40:40.779Z,81.00
2019-02-08T00:43:10.221Z,81.90
2019-02-08T00:45:39.186Z,81.20
2019-02-08T00:48:08.373Z,81.10
2019-02-08T00:50:37.681Z,81.10
2019-02-08T00:53:06.568Z,81.10
2019-02-08T00:55:35.798Z,81.10
2019-02-08T00:58:04.869Z,81.00
2019-02-08T01:00:34.048Z,81.10
2019-02-08T01:03:04.490Z,81.10
2019-02-08T01:05:36.960Z,81.10
2019-02-08T01:08:08.188Z,81.10
2019-02-08T01:10:37.107Z,81.00
2019-02-08T01:13:07.399Z,81.00
2019-02-08T01:15:36.635Z,81.00
2019-02-08T01:18:05.770Z,81.00
2019-02-08T01:20:34.896Z,81.00
2019-02-08T01:23:04.028Z,81.00
2019-02-08T01:25:33.693Z,81.00
2019-02-08T01:28:02.605Z,81.10
2019-02-08T01:30:31.757Z,81.10
2019-02-08T01:33:01.136Z,81.10
2019-02-08T01:35:30.100Z,81.00
2019-02-08T01:37:59.443Z,81.00
2019-02-08T01:40:30.400Z,81.00
2019-02-08T01:42:59.350Z,81.00
2019-02-08T01:45:30.162Z,81.00
2019-02-08T01:47:59.724Z,81.10
2019-02-08T01:50:29.545Z,81.00
2019-02-08T01:52:58.655Z,81.00
2019-02-08T01:55:27.990Z,81.10
2019-02-08T01:57:57.266Z,81.10
2019-02-08T02:00:34.594Z,81.10
2019-02-08T02:03:04.853Z,81.10
2019-02-08T02:05:34.571Z,81.10
2019-02-08T02:08:04.262Z,81.00
2019-02-08T02:10:42.341Z,81.00
2019-02-08T02:13:12.966Z,81.00
2019-02-08T02:15:45.668Z,81.00
2019-02-08T02:18:15.252Z,81.00
2019-02-08T02:20:45.269Z,81.10
2019-02-08T02:23:16.241Z,81.10
2019-02-08T02:25:45.896Z,81.20
2019-02-08T02:28:14.892Z,81.00
2019-02-08T02:30:43.921Z,81.10
2019-02-08T02:33:13.650Z,81.10
2019-02-08T02:35:43.234Z,81.10
2019-02-08T02:38:12.295Z,81.20
2019-02-08T02:40:41.173Z,81.10
2019-02-08T02:43:10.581Z,81.10
2019-02-08T02:45:40.042Z,81.10
2019-02-08T02:48:11.289Z,81.10
2019-02-08T02:50:40.128Z,81.10
2019-02-08T02:53:09.315Z,81.10
2019-02-08T02:55:38.386Z,81.10
2019-02-08T02:58:07.612Z,81.10
2019-02-08T03:00:54.500Z,81.00
2019-02-08T03:03:23.277Z,81.00
2019-02-08T03:05:52.177Z,81.10
2019-02-08T03:08:21.111Z,81.20
2019-02-08T03:10:49.949Z,81.20
2019-02-08T03:13:19.081Z,81.20
2019-02-08T03:15:47.967Z,81.30
2019-02-08T03:18:17.116Z,81.30
2019-02-08T03:20:46.236Z,81.30
2019-02-08T03:23:15.428Z,81.30
2019-02-08T03:25:44.615Z,81.20
2019-02-08T03:28:13.640Z,81.20
2019-02-08T03:30:46.541Z,81.20
2019-02-08T03:33:15.423Z,81.10
2019-02-08T03:35:44.321Z,81.10
2019-02-08T03:38:13.502Z,81.10
2019-02-08T03:40:42.415Z,81.20
2019-02-08T03:43:11.316Z,81.20
2019-02-08T03:45:41.796Z,81.30
2019-02-08T03:48:11.477Z,81.20
2019-02-08T03:50:40.772Z,81.90
2019-02-08T03:53:10.235Z,81.10
2019-02-08T03:55:39.523Z,81.00
2019-02-08T03:58:09.503Z,81.00
2019-02-08T04:00:45.680Z,80.90
2019-02-08T04:03:14.611Z,80.90
2019-02-08T04:05:43.555Z,80.90
2019-02-08T04:08:12.670Z,80.90
2019-02-08T04:10:41.703Z,80.90
2019-02-08T04:13:10.614Z,81.00
2019-02-08T04:15:39.514Z,81.10
2019-02-08T04:18:08.485Z,81.20
2019-02-08T04:20:37.264Z,81.10
2019-02-08T04:23:06.112Z,81.30
2019-02-08T04:25:35.233Z,81.30
2019-02-08T04:28:04.080Z,81.30
2019-02-08T04:30:32.983Z,81.20
2019-02-08T04:33:02.971Z,81.20
2019-02-08T04:35:31.946Z,81.20
2019-02-08T04:38:00.823Z,81.20
2019-02-08T04:40:29.789Z,81.20
2019-02-08T04:42:59.203Z,81.30
2019-02-08T04:45:28.262Z,81.40
2019-02-08T04:47:57.340Z,81.40
2019-02-08T04:50:26.212Z,81.40
2019-02-08T04:52:55.468Z,81.30
2019-02-08T04:55:24.421Z,81.40
2019-02-08T04:57:53.327Z,81.40
2019-02-08T05:00:27.372Z,81.30
2019-02-08T05:02:56.711Z,81.30
2019-02-08T05:05:26.435Z,81.40
2019-02-08T05:07:55.436Z,81.30
2019-02-08T05:10:26.311Z,81.30
2019-02-08T05:12:55.315Z,81.30
2019-02-08T05:15:24.677Z,81.30
2019-02-08T05:17:53.815Z,81.30
2019-02-08T05:20:24.223Z,81.30
2019-02-08T05:22:53.429Z,81.20
2019-02-08T05:25:22.794Z,81.20
2019-02-08T05:27:52.612Z,81.20
2019-02-08T05:30:24.177Z,81.30
2019-02-08T05:32:53.158Z,81.20
2019-02-08T05:35:22.144Z,81.20
2019-02-08T05:37:51.098Z,81.30
2019-02-08T05:40:20.273Z,81.20
2019-02-08T05:42:49.152Z,81.20
2019-02-08T05:45:19.559Z,81.30
2019-02-08T05:47:48.756Z,81.30
2019-02-08T05:50:20.002Z,81.30
2019-02-08T05:52:49.175Z,81.20
2019-02-08T05:55:21.097Z,81.10
2019-02-08T05:57:50.293Z,81.10
2019-02-08T06:00:23.878Z,81.10
2019-02-08T06:02:53.182Z,80.90
2019-02-08T06:05:22.516Z,80.80
2019-02-08T06:07:51.780Z,80.80
2019-02-08T06:10:20.937Z,80.80
2019-02-08T06:12:50.137Z,81.80
2019-02-08T06:15:19.885Z,81.20
2019-02-08T06:17:48.818Z,81.30
2019-02-08T06:20:19.831Z,81.40
2019-02-08T06:22:48.934Z,81.40
2019-02-08T06:25:18.395Z,81.30
2019-02-08T06:27:47.697Z,81.30
2019-02-08T06:30:18.590Z,81.30
2019-02-08T06:32:47.489Z,81.20
2019-02-08T06:35:18.474Z,81.20
2019-02-08T06:37:47.574Z,81.20
2019-02-08T06:40:18.711Z,81.20
2019-02-08T06:42:47.634Z,81.20
2019-02-08T06:45:17.753Z,81.20
2019-02-08T06:47:46.907Z,81.20
2019-02-08T06:50:17.574Z,81.20
2019-02-08T06:52:46.831Z,81.20
2019-02-08T06:55:16.032Z,81.10
2019-02-08T06:58:14.760Z,81.10
2019-02-08T07:00:56.512Z,81.10
2019-02-08T07:03:42.226Z,81.20
2019-02-08T07:06:22.992Z,81.70
2019-02-08T07:09:06.375Z,81.00
2019-02-08T07:11:41.323Z,81.00
2019-02-08T07:14:25.090Z,81.00
2019-02-08T07:17:04.877Z,80.90
2019-02-08T07:19:51.549Z,81.00
2019-02-08T07:22:40.794Z,81.00
2019-02-08T07:25:27.753Z,81.00
2019-02-08T07:28:03.197Z,81.00
2019-02-08T07:30:50.787Z,81.00
2019-02-08T07:33:38.970Z,81.10
2019-02-08T07:36:32.883Z,81.10
2019-02-08T07:39:17.160Z,81.10
2019-02-08T07:41:54.519Z,81.00
2019-02-08T07:44:36.338Z,81.10
2019-02-08T07:47:14.265Z,80.90
2019-02-08T07:50:04.290Z,81.20
2019-02-08T07:52:50.793Z,81.20
2019-02-08T07:55:33.198Z,81.30
2019-02-08T07:58:11.807Z,81.30
2019-02-08T08:00:51.980Z,81.20
2019-02-08T08:03:30.630Z,81.20
2019-02-08T08:06:28.766Z,81.20
2019-02-08T08:09:09.569Z,80.90
2019-02-08T08:11:46.879Z,81.30
2019-02-08T08:14:35.663Z,81.30
2019-02-08T08:17:33.049Z,81.20
2019-02-08T08:20:20.590Z,81.20
2019-02-08T08:23:30.958Z,81.10
2019-02-08T08:26:13.865Z,80.90
2019-02-08T08:31:26.557Z,81.30
2019-02-08T08:34:03.212Z,81.70
2019-02-08T08:37:09.225Z,81.60
2019-02-08T08:39:56.974Z,81.50
2019-02-08T08:43:08.516Z,81.40
2019-02-08T08:46:10.336Z,81.30
2019-02-08T08:49:03.969Z,81.20
2019-02-08T08:52:02.027Z,81.30
2019-02-08T08:55:22.946Z,81.30
2019-02-08T08:58:20.802Z,81.30
2019-02-08T09:01:26.629Z,81.20
2019-02-08T09:04:57.836Z,81.10
2019-02-08T09:08:06.284Z,81.20
2019-02-08T09:11:04.071Z,81.10
2019-02-08T09:14:06.408Z,81.10
2019-02-08T09:17:18.996Z,81.00
2019-02-08T09:20:24.085Z,81.20
2019-02-08T09:23:17.656Z,81.00
2019-02-08T09:26:37.025Z,80.90
2019-02-08T09:29:46.394Z,80.90
2019-02-08T09:32:38.515Z,81.00
2019-02-08T09:35:26.980Z,81.10
2019-02-08T09:38:18.299Z,81.20
2019-02-08T09:41:08.142Z,81.20
2019-02-08T09:44:20.151Z,81.30
2019-02-08T09:47:23.047Z,81.40
2019-02-08T09:50:39.886Z,81.40
2019-02-08T09:53:48.290Z,81.40
2019-02-08T09:56:41.565Z,81.30
2019-02-08T09:59:51.350Z,81.60
2019-02-08T10:02:55.833Z,81.70
2019-02-08T10:06:01.697Z,81.60
2019-02-08T10:09:09.623Z,81.60
2019-02-08T10:12:14.662Z,81.60
2019-02-08T10:15:37.015Z,81.70
2019-02-08T10:19:01.214Z,81.70
2019-02-08T10:21:58.721Z,81.80
2019-02-08T10:25:00.299Z,81.80
2019-02-08T10:28:05.203Z,81.80
2019-02-08T10:31:10.141Z,81.90
2019-02-08T10:34:15.684Z,81.80
2019-02-08T10:37:06.815Z,82.00
2019-02-08T10:40:43.827Z,82.00
2019-02-08T10:44:05.863Z,82.10
2019-02-08T10:47:37.223Z,82.20
2019-02-08T10:50:36.337Z,82.30
2019-02-08T10:53:40.955Z,82.20
2019-02-08T10:56:45.721Z,82.20
2019-02-08T10:59:51.689Z,82.20
2019-02-08T11:02:57.615Z,82.30
2019-02-08T11:06:02.222Z,82.50
2019-02-08T11:09:07.106Z,82.60
2019-02-08T11:12:19.020Z,82.50
2019-02-08T11:15:41.808Z,82.40
2019-02-08T11:19:03.967Z,82.40
2019-02-08T11:21:32.913Z,82.40
2019-02-08T11:24:01.753Z,82.30
2019-02-08T11:26:30.763Z,82.30
2019-02-08T11:28:59.774Z,82.40
2019-02-08T11:31:28.770Z,82.40
2019-02-08T11:33:58.168Z,82.40
2019-02-08T11:36:27.569Z,82.40
2019-02-08T11:38:56.372Z,82.40
2019-02-08T11:41:34.853Z,82.60
2019-02-08T11:44:04.915Z,82.50
2019-02-08T11:46:34.339Z,82.50
2019-02-08T11:49:10.292Z,82.50
2019-02-08T11:51:39.459Z,82.60
2019-02-08T11:54:08.848Z,82.50
2019-02-08T11:56:37.848Z,82.50
2019-02-08T11:59:06.816Z,82.40
2019-02-08T12:01:41.794Z,82.40
2019-02-08T12:04:11.202Z,82.30
2019-02-08T12:06:40.281Z,82.40
2019-02-08T12:09:13.061Z,82.40
2019-02-08T12:11:42.538Z,82.00
2019-02-08T12:14:11.398Z,82.10
2019-02-08T12:17:00.848Z,82.30
2019-02-08T12:19:29.905Z,82.30
2019-02-08T12:21:58.798Z,82.30
2019-02-08T12:24:28.021Z,82.20
2019-02-08T12:26:59.286Z,82.00
2019-02-08T12:29:28.298Z,81.90
2019-02-08T12:31:57.163Z,82.00
2019-02-08T12:34:26.340Z,82.00
2019-02-08T12:36:55.240Z,82.10
2019-02-08T12:39:24.387Z,82.00
2019-02-08T12:41:53.284Z,81.90
2019-02-08T12:44:22.481Z,81.90
2019-02-08T12:47:22.227Z,81.90
2019-02-08T12:49:51.643Z,81.80
2019-02-08T12:52:20.603Z,81.80
2019-02-08T12:54:49.444Z,81.80
2019-02-08T12:57:18.656Z,81.80
2019-02-08T12:59:47.683Z,81.90
2019-02-08T13:02:16.745Z,82.00
2019-02-08T13:04:45.775Z,82.10
2019-02-08T13:07:15.085Z,82.20
2019-02-08T13:09:44.840Z,82.20
2019-02-08T13:12:14.541Z,82.30
2019-02-08T13:14:44.822Z,82.30
2019-02-08T13:17:14.598Z,82.30
2019-02-08T13:19:45.813Z,82.30
2019-02-08T13:22:16.194Z,82.30
2019-02-08T13:24:51.418Z,82.30
2019-02-08T13:27:20.875Z,82.40
2019-02-08T13:29:50.359Z,82.40
2019-02-08T13:32:19.285Z,82.30
2019-02-08T13:34:48.189Z,82.40
2019-02-08T13:37:17.434Z,82.30
2019-02-08T13:39:47.032Z,82.20
2019-02-08T13:42:15.910Z,82.20
2019-02-08T13:44:51.218Z,82.30
2019-02-08T13:47:20.336Z,82.20
2019-02-08T13:49:49.706Z,82.10
2019-02-08T13:52:19.211Z,82.00
2019-02-08T13:54:48.445Z,82.00
2019-02-08T13:57:17.874Z,82.10
2019-02-08T13:59:46.833Z,82.10
2019-02-08T14:02:23.388Z,82.10
2019-02-08T14:04:52.546Z,81.90
2019-02-08T14:07:21.430Z,82.00
2019-02-08T14:09:50.396Z,82.00
2019-02-08T14:12:19.339Z,82.00
2019-02-08T14:14:48.559Z,82.00
2019-02-08T14:17:17.476Z,82.00
2019-02-08T14:19:46.414Z,81.90
2019-02-08T14:22:15.380Z,82.00
2019-02-08T14:24:44.548Z,81.80
2019-02-08T14:27:13.398Z,81.60
2019-02-08T14:29:42.310Z,81.50
2019-02-08T14:32:11.287Z,81.50
2019-02-08T14:34:43.692Z,81.50
2019-02-08T14:37:11.094Z,81.40
2019-02-08T14:39:40.012Z,81.40
2019-02-08T14:42:08.903Z,81.30
2019-02-08T14:44:37.916Z,81.30
2019-02-08T14:47:07.075Z,81.30
2019-02-08T14:49:36.786Z,81.30
2019-02-08T14:52:05.743Z,81.20
2019-02-08T14:54:35.239Z,81.20
2019-02-08T14:57:06.240Z,81.10
2019-02-08T14:59:35.227Z,81.10
2019-02-08T15:02:29.815Z,80.90
2019-02-08T15:04:59.354Z,80.90
2019-02-08T15:07:28.899Z,80.90
2019-02-08T15:09:58.080Z,80.90
2019-02-08T15:12:27.142Z,80.90
2019-02-08T15:14:56.427Z,81.00
2019-02-08T15:17:25.353Z,81.00
2019-02-08T15:19:54.406Z,81.10
2019-02-08T15:22:23.201Z,81.10
2019-02-08T15:24:52.664Z,81.20
2019-02-08T15:27:24.367Z,81.20
2019-02-08T15:29:52.354Z,81.40
2019-02-08T15:32:21.295Z,81.50
2019-02-08T15:34:50.165Z,81.50
2019-02-08T15:37:19.870Z,81.50
2019-02-08T15:39:49.194Z,81.50
2019-02-08T15:42:18.196Z,81.40
2019-02-08T15:44:47.188Z,81.40
2019-02-08T15:47:16.374Z,81.40
2019-02-08T15:49:45.372Z,81.30
2019-02-08T15:52:14.383Z,81.30
2019-02-08T15:54:44.845Z,81.40
2019-02-08T15:57:14.237Z,81.40
2019-02-08T15:59:43.700Z,81.40
2019-02-08T16:02:13.207Z,81.40
2019-02-08T16:04:42.194Z,81.30
2019-02-08T16:07:11.672Z,81.40
2019-02-08T16:09:40.609Z,81.50
2019-02-08T16:12:09.501Z,81.70
2019-02-08T16:14:38.518Z,81.70
2019-02-08T16:17:08.023Z,81.70
2019-02-08T16:19:36.927Z,81.70
2019-02-08T16:22:06.588Z,81.70
2019-02-08T16:24:35.514Z,81.80
2019-02-08T16:27:05.460Z,81.80
2019-02-08T16:29:34.705Z,81.90
2019-02-08T16:32:04.103Z,82.00
2019-02-08T16:34:33.403Z,81.90
2019-02-08T16:37:03.856Z,81.90
2019-02-08T16:39:32.964Z,81.90
2019-02-08T16:42:02.186Z,82.00
2019-02-08T16:44:31.260Z,82.00
2019-02-08T16:47:00.781Z,82.00
2019-02-08T16:49:29.920Z,82.00
2019-02-08T16:51:58.967Z,81.90
2019-02-08T16:54:28.089Z,82.00
2019-02-08T16:56:57.950Z,82.00
2019-02-08T16:59:27.167Z,82.00
2019-02-08T17:01:56.391Z,82.00
2019-02-08T17:04:25.400Z,82.00
2019-02-08T17:06:54.373Z,82.10
2019-02-08T17:09:23.959Z,82.00
2019-02-08T17:11:52.827Z,82.10
2019-02-08T17:14:23.807Z,82.00
2019-02-08T17:17:40.696Z,82.00
2019-02-08T17:19:48.965Z,82.00
2019-02-08T17:22:18.208Z,81.90
2019-02-08T17:24:47.106Z,81.90
2019-02-08T17:27:20.705Z,81.90
2019-02-08T17:29:49.793Z,81.80
2019-02-08T17:32:19.007Z,81.70
2019-02-08T17:34:47.851Z,81.70
2019-02-08T17:37:16.933Z,81.60
2019-02-08T17:39:46.102Z,81.60
2019-02-08T17:42:15.317Z,81.50
2019-02-08T17:44:44.330Z,81.40
2019-02-08T17:47:13.490Z,81.30
2019-02-08T17:49:42.403Z,81.20
2019-02-08T17:52:11.682Z,81.20
2019-02-08T17:54:40.943Z,81.20
2019-02-08T17:57:10.132Z,81.20
2019-02-08T17:59:39.302Z,81.10
2019-02-08T18:02:08.257Z,81.10
2019-02-08T18:04:37.190Z,81.10
2019-02-08T18:07:11.371Z,81.10
2019-02-08T18:09:41.719Z,81.10
2019-02-08T18:12:10.983Z,81.10
2019-02-08T18:14:40.086Z,81.10
2019-02-08T18:17:09.368Z,81.10
2019-02-08T18:19:38.403Z,81.20
2019-02-08T18:22:07.409Z,81.20
2019-02-08T18:24:36.659Z,81.20
2019-02-08T18:27:05.861Z,81.20
2019-02-08T18:29:35.073Z,81.10
2019-02-08T18:32:04.371Z,81.10
2019-02-08T18:34:33.697Z,81.10
2019-02-08T18:37:11.204Z,81.00
2019-02-08T18:39:40.758Z,81.30
2019-02-08T18:42:13.980Z,81.00
2019-02-08T18:44:43.294Z,80.90
2019-02-08T18:47:12.191Z,80.90
2019-02-08T18:49:41.626Z,80.90
2019-02-08T18:52:12.699Z,81.00
2019-02-08T18:54:42.287Z,80.90
2019-02-08T18:57:11.457Z,80.80
2019-02-08T18:59:40.382Z,80.80
2019-02-08T19:02:09.398Z,80.90
2019-02-08T19:04:40.219Z,80.70
2019-02-08T19:07:09.450Z,80.70
2019-02-08T19:09:38.793Z,80.80
2019-02-08T19:12:08.086Z,80.80
2019-02-08T19:14:37.304Z,80.80
2019-02-08T19:17:06.236Z,80.70
2019-02-08T19:19:35.206Z,80.60
2019-02-08T19:22:04.221Z,80.60
2019-02-08T19:24:33.555Z,80.50
2019-02-08T19:27:02.932Z,80.50
2019-02-08T19:29:31.820Z,80.40
2019-02-08T19:32:01.009Z,80.40
2019-02-08T19:34:30.507Z,80.40
2019-02-08T19:36:59.849Z,80.30
2019-02-08T19:39:29.002Z,80.30
2019-02-08T19:41:58.123Z,80.20
2019-02-08T19:44:27.193Z,80.30
2019-02-08T19:46:57.326Z,80.30
2019-02-08T19:49:26.336Z,80.20
2019-02-08T19:51:55.302Z,80.20
2019-02-08T19:54:24.706Z,80.20
2019-02-08T19:56:54.687Z,80.10
2019-02-08T19:59:23.929Z,80.10
2019-02-08T20:01:53.070Z,80.10
2019-02-08T20:04:22.689Z,80.00
2019-02-08T20:06:54.341Z,80.10
2019-02-08T20:09:23.437Z,80.10
2019-02-08T20:11:53.484Z,80.30
2019-02-08T20:14:22.419Z,80.20
2019-02-08T20:16:51.381Z,80.30
2019-02-08T20:19:21.625Z,80.20
2019-02-08T20:21:51.960Z,80.20
2019-02-08T20:24:24.654Z,80.10
2019-02-08T20:26:53.651Z,80.20
2019-02-08T20:29:23.621Z,80.10
2019-02-08T20:31:54.618Z,80.20
2019-02-08T20:34:23.903Z,80.10
2019-02-08T20:36:52.795Z,80.00
2019-02-08T20:39:21.847Z,80.00
2019-02-08T20:41:51.276Z,80.00
2019-02-08T20:44:20.532Z,80.00
2019-02-08T20:46:49.540Z,80.00
2019-02-08T20:49:18.487Z,79.90
2019-02-08T20:51:47.831Z,79.90
2019-02-08T20:54:17.245Z,79.90
2019-02-08T20:56:46.270Z,80.00
2019-02-08T20:59:17.860Z,79.90
2019-02-08T21:01:49.204Z,79.90
2019-02-08T21:04:18.509Z,79.80
2019-02-08T21:06:47.450Z,79.80
2019-02-08T21:09:16.775Z,79.80
2019-02-08T21:11:46.126Z,79.70
2019-02-08T21:14:15.568Z,79.70
2019-02-08T21:16:44.446Z,79.70
2019-02-08T21:19:13.366Z,79.60
2019-02-08T21:21:42.533Z,79.60
2019-02-08T21:24:11.527Z,79.50
2019-02-08T21:26:40.711Z,79.60
2019-02-08T21:29:09.910Z,79.50
2019-02-08T21:31:38.854Z,79.60
2019-02-08T21:34:08.135Z,79.60
2019-02-08T21:36:39.111Z,79.60
2019-02-08T21:39:08.875Z,79.60
2019-02-08T21:41:37.693Z,79.60
2019-02-08T21:44:08.471Z,79.60
2019-02-08T21:46:37.425Z,79.50
2019-02-08T21:49:07.022Z,79.50
2019-02-08T21:51:37.120Z,79.30
2019-02-08T21:54:06.558Z,79.40
2019-02-08T21:56:35.846Z,79.50
2019-02-08T21:59:06.086Z,79.50
2019-02-08T22:01:35.966Z,79.40
2019-02-08T22:04:05.231Z,79.50
2019-02-08T22:06:35.998Z,80.10
2019-02-08T22:09:06.972Z,79.30
2019-02-08T22:11:42.659Z,79.60
2019-02-08T22:14:11.796Z,79.10
2019-02-08T22:16:40.634Z,79.50
2019-02-08T22:19:09.853Z,79.60
2019-02-08T22:22:01.608Z,79.40
2019-02-08T22:24:30.617Z,79.20
2019-02-08T22:27:01.558Z,79.40
2019-02-08T22:29:36.074Z,79.40
2019-02-08T22:32:08.692Z,79.30
2019-02-08T22:34:45.051Z,79.30
2019-02-08T22:37:14.147Z,79.30
2019-02-08T22:39:43.675Z,79.50
2019-02-08T22:42:12.783Z,79.40
2019-02-08T22:44:41.725Z,79.40
2019-02-08T22:47:10.628Z,79.40
2019-02-08T22:49:39.859Z,80.10
2019-02-08T22:52:08.864Z,79.40
2019-02-08T22:54:37.778Z,79.30
2019-02-08T22:57:07.148Z,79.30
2019-02-08T22:59:36.284Z,79.10
2019-02-08T23:02:07.380Z,79.30
2019-02-08T23:04:36.314Z,79.20
2019-02-08T23:07:05.521Z,79.10
2019-02-08T23:09:34.586Z,79.20
2019-02-08T23:12:03.693Z,79.10
2019-02-08T23:14:32.671Z,79.10
2019-02-08T23:17:01.935Z,79.00
2019-02-08T23:19:33.705Z,78.80
2019-02-08T23:22:03.019Z,78.90
2019-02-08T23:24:35.078Z,78.90
2019-02-08T23:27:04.172Z,78.60
2019-02-08T23:29:33.749Z,79.10
2019-02-08T23:32:02.959Z,79.10
2019-02-08T23:34:31.968Z,79.10
2019-02-08T23:37:00.966Z,79.00
2019-02-08T23:39:29.866Z,78.80
2019-02-08T23:41:59.094Z,78.70
2019-02-08T23:44:28.041Z,78.70
2019-02-08T23:46:57.123Z,78.70
2019-02-08T23:49:26.063Z,78.60
2019-02-08T23:51:55.123Z,78.60
2019-02-08T23:54:24.356Z,78.60
2019-02-08T23:56:53.497Z,78.60
2019-02-08T23:59:22.748Z,78.60
